createdAt,value
2023-05-07T00:02:24.072Z,2.90
2023-05-07T00:06:25.236Z,3.67
2023-05-07T00:10:26.636Z,6.17
2023-05-07T00:14:26.933Z,4.47
2023-05-07T00:18:29.729Z,6.03
2023-05-07T00:22:31.331Z,4.93
2023-05-07T00:26:31.584Z,7.67
2023-05-07T00:30:32.006Z,5.23
2023-05-07T00:34:35.619Z,5.50
2023-05-07T00:38:36.075Z,5.13
2023-05-07T00:42:36.306Z,6.73
2023-05-07T00:46:38.040Z,4.10
2023-05-07T00:50:41.158Z,6.33
2023-05-07T00:54:43.887Z,6.10
2023-05-07T00:58:44.882Z,5.93
2023-05-07T01:02:46.485Z,6.23
2023-05-07T01:06:50.583Z,6.57
2023-05-07T01:10:51.450Z,5.73
2023-05-07T01:14:52.217Z,7.97
2023-05-07T01:18:53.358Z,8.07
2023-05-07T01:22:57.185Z,7.43
2023-05-07T01:26:57.466Z,8.93
2023-05-07T01:31:04.501Z,8.83
2023-05-07T01:35:09.204Z,9.37
2023-05-07T01:39:13.968Z,6.10
2023-05-07T01:43:14.966Z,7.90
2023-05-07T01:47:17.676Z,11.50
2023-05-07T01:51:17.970Z,8.17
2023-05-07T01:55:20.945Z,11.73
2023-05-07T01:59:21.434Z,12.30
2023-05-07T02:03:21.999Z,11.93
2023-05-07T02:07:31.101Z,11.77
2023-05-07T02:11:34.729Z,9.73
2023-05-07T02:15:35.247Z,11.33
2023-05-07T02:19:37.123Z,9.87
2023-05-07T02:23:37.381Z,14.67
2023-05-07T02:27:40.253Z,13.30
2023-05-07T02:31:40.519Z,12.30
2023-05-07T02:35:40.904Z,9.80
2023-05-07T02:39:42.183Z,9.07
2023-05-07T02:43:45.151Z,10.13
2023-05-07T02:47:46.485Z,9.23
2023-05-07T02:51:46.813Z,8.43
2023-05-07T02:55:53.437Z,9.53
2023-05-07T02:59:56.378Z,13.57
2023-05-07T03:03:56.920Z,11.53
2023-05-07T03:07:57.342Z,11.73
2023-05-07T03:11:57.668Z,9.00
2023-05-07T03:16:03.512Z,8.30
2023-05-07T03:20:04.163Z,7.87
2023-05-07T03:24:06.226Z,11.77
2023-05-07T03:28:06.904Z,11.20
2023-05-07T03:32:30.352Z,16.13
2023-05-07T03:36:30.872Z,17.60
2023-05-07T03:40:31.341Z,13.57
2023-05-07T03:44:32.008Z,12.27
2023-05-07T03:48:36.785Z,13.10
2023-05-07T03:52:37.397Z,12.43
2023-05-07T03:56:39.275Z,12.03
2023-05-07T04:00:41.729Z,13.53
2023-05-07T04:05:11.526Z,14.80
2023-05-07T04:09:13.642Z,14.93
2023-05-07T04:13:14.185Z,12.17
2023-05-07T04:17:15.801Z,11.73
2023-05-07T04:21:23.695Z,11.50
2023-05-07T04:25:27.939Z,11.77
2023-05-07T04:29:34.848Z,10.50
2023-05-07T04:33:36.902Z,10.50
2023-05-07T04:37:41.266Z,10.13
2023-05-07T04:41:42.165Z,12.90
2023-05-07T04:45:43.423Z,13.93
2023-05-07T04:49:43.789Z,13.63
2023-05-07T04:53:48.241Z,15.03
2023-05-07T04:57:48.726Z,13.33
2023-05-07T05:01:50.239Z,14.27
2023-05-07T05:05:53.057Z,13.00
2023-05-07T05:09:58.751Z,17.60
2023-05-07T05:13:59.688Z,15.87
2023-05-07T05:18:00.196Z,16.47
2023-05-07T05:22:02.238Z,13.43
2023-05-07T05:26:06.294Z,16.37
2023-05-07T05:30:10.159Z,12.93
2023-05-07T05:34:11.613Z,13.33
2023-05-07T05:38:12.494Z,13.63
2023-05-07T05:42:16.983Z,14.47
2023-05-07T05:46:18.936Z,19.90
2023-05-07T05:50:20.891Z,17.10
2023-05-07T05:54:24.008Z,14.97
2023-05-07T05:58:28.082Z,14.87
2023-05-07T06:02:34.241Z,17.33
2023-05-07T06:06:35.818Z,18.17
2023-05-07T06:10:37.469Z,16.70
2023-05-07T06:14:42.093Z,14.73
2023-05-07T06:18:42.571Z,16.53
2023-05-07T06:22:43.952Z,15.93
2023-05-07T06:26:46.010Z,14.43
2023-05-07T06:30:51.079Z,18.57
2023-05-07T06:34:52.061Z,13.63
2023-05-07T06:38:53.019Z,15.17
2023-05-07T06:42:53.564Z,16.25
2023-05-07T06:47:15.710Z,13.75
2023-05-07T06:51:17.704Z,15.98
2023-05-07T06:55:18.283Z,16.40
2023-05-07T06:59:20.508Z,13.57
2023-05-07T07:03:24.487Z,14.32
2023-05-07T07:07:25.102Z,11.95
2023-05-07T07:11:25.499Z,14.85
2023-05-07T07:15:26.328Z,13.10
2023-05-07T07:19:31.670Z,10.52
2023-05-07T07:23:33.016Z,11.50
2023-05-07T07:27:33.553Z,10.52
2023-05-07T07:31:34.958Z,9.88
2023-05-07T07:35:38.908Z,10.23
2023-05-07T07:39:42.363Z,12.52
2023-05-07T07:43:43.474Z,10.65
2023-05-07T07:47:44.967Z,11.93
2023-05-07T07:51:49.808Z,11.82
2023-05-07T07:55:50.868Z,11.10
2023-05-07T07:59:54.633Z,13.45
2023-05-07T08:03:56.220Z,9.88
2023-05-07T08:12:43.752Z,10.07
2023-05-07T08:16:44.606Z,10.07
2023-05-07T08:20:45.188Z,9.45
2023-05-07T08:24:49.637Z,9.15
2023-05-07T08:28:52.737Z,9.50
2023-05-07T08:32:53.233Z,9.27
2023-05-07T08:36:53.674Z,10.77
2023-05-07T08:40:57.277Z,10.05
2023-05-07T08:45:06.778Z,9.85
2023-05-07T08:49:09.218Z,9.38
2023-05-07T08:53:10.065Z,12.02
2023-05-07T09:11:18.915Z,12.50
2023-05-07T09:15:39.745Z,11.35
2023-05-07T09:20:01.051Z,10.90
2023-05-07T09:24:21.780Z,11.95
2023-05-07T09:28:47.691Z,11.60
2023-05-07T09:32:52.190Z,8.60
2023-05-07T09:36:55.656Z,10.25
2023-05-07T09:41:07.905Z,10.82
2023-05-07T09:45:33.416Z,10.80
2023-05-07T09:49:38.218Z,13.48
2023-05-07T09:53:45.001Z,11.15
2023-05-07T09:57:48.828Z,11.25
2023-05-07T10:01:53.582Z,11.63
2023-05-07T10:05:55.584Z,8.48
2023-05-07T10:10:02.529Z,10.88
2023-05-07T10:14:11.913Z,10.23
2023-05-07T10:18:19.322Z,9.45
2023-05-07T10:22:24.211Z,8.95
2023-05-07T10:26:31.291Z,8.70
2023-05-07T10:30:50.754Z,10.48
2023-05-07T10:34:59.788Z,7.93
2023-05-07T10:39:00.367Z,8.57
2023-05-07T10:43:13.695Z,8.65
2023-05-07T10:47:21.187Z,8.05
2023-05-07T10:51:28.083Z,6.90
2023-05-07T10:55:37.117Z,7.10
2023-05-07T10:59:49.404Z,6.50
2023-05-07T11:04:25.851Z,9.32
2023-05-07T11:09:02.446Z,8.70
2023-05-07T11:13:49.237Z,6.22
2023-05-07T11:18:21.444Z,7.78
2023-05-07T11:22:43.345Z,7.05
2023-05-07T11:27:04.150Z,7.18
2023-05-07T11:31:06.362Z,8.90
2023-05-07T11:35:07.552Z,6.90
2023-05-07T11:39:08.396Z,6.03
2023-05-07T11:43:17.642Z,6.15
2023-05-07T11:47:22.862Z,8.25
2023-05-07T11:51:24.866Z,6.88
2023-05-07T11:55:26.017Z,6.65
2023-05-07T11:59:28.938Z,7.65
2023-05-07T12:03:32.104Z,6.85
2023-05-07T12:07:38.107Z,7.88
2023-05-07T12:11:41.017Z,6.35
2023-05-07T12:15:43.778Z,6.05
2023-05-07T12:19:47.391Z,6.50
2023-05-07T12:23:49.081Z,5.82
2023-05-07T12:27:56.329Z,5.85
2023-05-07T12:32:00.529Z,6.13
2023-05-07T12:36:01.986Z,6.53
2023-05-07T12:40:10.191Z,7.10
2023-05-07T12:44:10.712Z,6.43
2023-05-07T12:48:14.894Z,6.75
2023-05-07T12:52:15.843Z,6.70
2023-05-07T12:56:16.182Z,6.38
2023-05-07T13:00:18.920Z,5.65
2023-05-07T13:04:22.625Z,5.45
2023-05-07T13:08:34.913Z,4.88
2023-05-07T13:12:35.385Z,6.13
2023-05-07T13:16:35.638Z,7.13
2023-05-07T13:20:38.478Z,5.70
2023-05-07T13:24:38.681Z,10.68
2023-05-07T13:28:38.949Z,8.70
2023-05-07T13:32:39.865Z,6.45
2023-05-07T13:36:43.131Z,5.38
2023-05-07T13:40:43.426Z,5.03
2023-05-07T13:44:44.985Z,5.60
2023-05-07T13:48:45.182Z,6.60
2023-05-07T13:52:51.988Z,4.68
2023-05-07T13:56:52.332Z,5.30
2023-05-07T14:00:52.756Z,4.90
2023-05-07T14:04:55.213Z,4.85
2023-05-07T14:08:59.405Z,5.32
2023-05-07T14:12:59.793Z,4.50
2023-05-07T14:17:00.201Z,5.28
2023-05-07T14:21:01.000Z,4.10
2023-05-07T14:25:07.175Z,4.43
2023-05-07T14:29:08.040Z,6.85
2023-05-07T14:33:08.290Z,4.28
2023-05-07T14:37:08.645Z,4.30
2023-05-07T14:41:11.423Z,5.95
2023-05-07T14:45:14.139Z,4.55
2023-05-07T14:49:18.214Z,4.15
2023-05-07T14:53:18.502Z,3.78
2023-05-07T14:57:21.316Z,4.15
2023-05-07T15:01:21.653Z,3.53
2023-05-07T15:05:22.491Z,3.95
2023-05-07T15:09:22.709Z,3.50
2023-05-07T15:13:26.095Z,3.95
2023-05-07T15:17:27.392Z,3.30
2023-05-07T15:21:28.083Z,3.50
2023-05-07T15:25:28.487Z,4.65
2023-05-07T15:29:31.589Z,3.75
2023-05-07T15:33:33.249Z,3.80
2023-05-07T15:37:34.945Z,4.43
2023-05-07T15:41:36.762Z,4.50
2023-05-07T15:45:44.096Z,4.75
2023-05-07T15:49:49.351Z,4.70
2023-05-07T15:53:50.611Z,5.57
2023-05-07T15:57:50.838Z,4.90
2023-05-07T16:01:53.693Z,5.78
2023-05-07T16:05:54.082Z,4.40
2023-05-07T16:09:54.269Z,4.43
2023-05-07T16:13:54.570Z,5.68
2023-05-07T16:17:58.443Z,5.80
2023-05-07T16:21:58.848Z,6.60
2023-05-07T16:25:59.197Z,4.95
2023-05-07T16:29:59.542Z,4.85
2023-05-07T16:34:03.290Z,5.00
2023-05-07T16:38:10.087Z,4.60
2023-05-07T16:42:14.201Z,4.57
2023-05-07T16:46:14.479Z,4.35
2023-05-07T16:50:18.197Z,4.90
2023-05-07T16:54:18.414Z,3.95
2023-05-07T16:58:19.257Z,5.45
2023-05-07T17:02:19.587Z,5.63
2023-05-07T17:06:25.250Z,6.13
2023-05-07T17:10:26.017Z,6.78
2023-05-07T17:14:30.422Z,4.60
2023-05-07T17:18:30.798Z,3.60
2023-05-07T17:22:36.870Z,6.75
2023-05-07T17:26:47.660Z,3.80
2023-05-07T17:30:48.365Z,4.10
2023-05-07T17:34:52.101Z,4.60
2023-05-07T17:38:55.175Z,4.07
2023-05-07T17:42:59.546Z,5.60
2023-05-07T17:47:00.673Z,4.38
2023-05-07T17:51:14.759Z,5.95
2023-05-07T17:55:26.107Z,4.00
2023-05-07T17:59:36.117Z,3.75
2023-05-07T18:03:39.285Z,7.13
2023-05-07T18:07:47.275Z,4.15
2023-05-07T18:11:56.626Z,5.55
2023-05-07T18:16:07.061Z,5.50
2023-05-07T18:20:11.917Z,4.20
2023-05-07T18:24:38.260Z,6.00
2023-05-07T18:28:50.317Z,6.20
2023-05-07T18:33:04.683Z,4.68
2023-05-07T18:37:07.160Z,4.90
2023-05-07T18:41:08.905Z,4.50
2023-05-07T18:45:20.015Z,4.75
2023-05-07T18:49:34.645Z,5.28
2023-05-07T18:53:37.332Z,4.68
2023-05-07T18:57:40.452Z,5.65
2023-05-07T19:01:44.178Z,4.22
2023-05-07T19:05:56.189Z,4.20
2023-05-07T19:10:04.970Z,5.63
2023-05-07T19:14:11.325Z,5.50
2023-05-07T19:18:21.906Z,5.47
2023-05-07T19:22:29.083Z,5.30
2023-05-07T19:26:30.912Z,4.43
2023-05-07T19:30:34.305Z,5.25
2023-05-07T19:34:37.960Z,4.20
2023-05-07T19:38:47.535Z,4.82
2023-05-07T19:42:57.666Z,5.47
2023-05-07T19:46:59.125Z,6.18
2023-05-07T19:51:06.336Z,5.70
2023-05-07T19:55:15.276Z,4.80
2023-05-07T19:59:16.563Z,5.32
2023-05-07T20:03:26.105Z,4.72
2023-05-07T20:07:33.014Z,4.90
2023-05-07T20:11:40.962Z,5.35
2023-05-07T20:15:41.556Z,5.78
2023-05-07T20:19:41.803Z,4.45
2023-05-07T20:23:44.831Z,4.60
2023-05-07T20:27:50.367Z,5.20
2023-05-07T20:31:50.911Z,6.73
2023-05-07T20:35:55.876Z,5.50
2023-05-07T20:39:59.005Z,6.10
2023-05-07T20:44:02.969Z,7.27
2023-05-07T20:48:03.946Z,5.93
2023-05-07T20:52:07.931Z,9.23
2023-05-07T20:56:11.510Z,5.60
2023-05-07T21:00:16.082Z,5.60
2023-05-07T21:04:16.496Z,7.43
2023-05-07T21:08:20.552Z,8.10
2023-05-07T21:12:25.157Z,5.63
2023-05-07T21:16:28.405Z,5.30
2023-05-07T21:20:28.868Z,6.03
2023-05-07T21:24:33.918Z,7.33
2023-05-07T21:28:37.064Z,8.87
2023-05-07T21:32:39.250Z,7.50
2023-05-07T21:36:42.203Z,6.50
2023-05-07T21:40:42.867Z,7.57
2023-05-07T21:44:45.608Z,8.00
2023-05-07T21:48:45.809Z,7.63
2023-05-07T21:52:46.860Z,5.90
2023-05-07T21:56:48.760Z,11.70
2023-05-07T22:00:53.167Z,6.13
2023-05-07T22:04:53.376Z,6.53
2023-05-07T22:08:54.033Z,7.40
2023-05-07T22:12:54.285Z,9.17
2023-05-07T22:16:57.116Z,8.73
2023-05-07T22:20:57.650Z,6.63
2023-05-07T22:24:57.839Z,8.13
2023-05-07T22:28:58.278Z,6.43
2023-05-07T22:33:01.101Z,7.07
2023-05-07T22:37:01.464Z,7.90
2023-05-07T22:41:02.645Z,7.23
2023-05-07T22:45:03.175Z,6.63
2023-05-07T22:49:06.467Z,8.20
2023-05-07T22:53:06.861Z,6.60
2023-05-07T22:57:07.240Z,6.87
2023-05-07T23:01:14.664Z,6.97
2023-05-07T23:05:17.646Z,7.77
2023-05-07T23:09:18.159Z,7.53
2023-05-07T23:13:19.689Z,5.87
2023-05-07T23:17:20.292Z,6.30
2023-05-07T23:21:23.428Z,6.20
2023-05-07T23:25:24.023Z,6.20
2023-05-07T23:29:24.284Z,6.23
2023-05-07T23:33:24.571Z,8.37
2023-05-07T23:37:28.204Z,5.97
2023-05-07T23:41:28.400Z,5.90
2023-05-07T23:45:28.684Z,6.30
2023-05-07T23:49:29.030Z,6.47
2023-05-07T23:53:32.307Z,5.73
2023-05-07T23:57:32.845Z,7.17
